עמוד ראשי
METAR-TAF:

METAR-TAF

שדות תעופה :

Latacunga, אקוודור

קו רוחב: 00-55S, קו אורך: 078-37W, גובה: 2785מטר

תצפית מזג אוויר נוכחית

הדו"ח נערך לפני 19דקות, בשעה 00:00 UTC
רוח 10קשר מכיוון דרום
טמפרטורת 13 צלסיוס
לחות 77%
לחץ 1029 hPa
ראות 10 קילומטר או יותר
עננים בינוניים בגובה 3000רגל

METAR: SELT 210000Z 17010KT 9999 BKN030 13/09 Q1029

זמן: 19:19 (00:19 UTC)

תחזית

הדו"ח נערך לפני 1 שעות ו 29דקות, בשעה 22:50 UTC
תחזית בתוקף מ 21 ב 00 UTC עד 21 ב 24 UTC
רוח 5קשר מכיוון דרום
ראות 10 קילומטר או יותר
עננים בינוניים בגובה 3000רגל
יעשה מ
21 ב 04 UTC עד 21 ב 06 UTC
עננים פזורים בגובה 1000רגל
עננים בינוניים בגובה 2600רגל
יעשה מ
21 ב 12 UTC עד 21 ב 14 UTC
עננים פזורים בגובה 2000רגל
עננים פזורים בגובה 8000רגל
יעשה מ
21 ב 18 UTC עד 21 ב 20 UTC
רוח 15קשר מכיוון דרום
עננים בינוניים בגובה 3000רגל

TAF: SELT 202250Z 2100/2124 19005KT 9999 BKN030 BECMG 2104/2106 SCT010 BKN026 BECMG 2112/2114 SCT020 SCT080 BECMG 2118/2120 18015KT BKN030 TX19/2119Z TN08/2111Z

תצפיות ותחזיות מזג אוויר לגבי יותר מ- 4,000 שדות תעופה ברחבי העולם. דוחות METAR ו- TAF.

התחנות הזמינות מסומנות בנקודות צהובות ואדומות על גבי המפה.

העבר את העכבר לנקודה הצבעונית על מנת לראות את שם התחנה.

לאחר מכן, לחץ כדי לראות את תוכן ואת תחזיות מזג האוויר.

כדי לשנות את המפה: לחץ על הכפתורים הירוקים עם הפלוס השחור כדי להתקרב; על הכפתור הירוק עם המקף כדי להתרחק; או בחיצים הירוקים למפות סמוכות.


METAR-TAF: